sensor_id;sensor_type;location;lat;lon;timestamp;P1;durP1;ratioP1;P2;durP2;ratioP2
52838;SDS011;39219;53.678;9.856;2023-03-29T00:01:03;17.48;;;7.80;;
52838;SDS011;39219;53.678;9.856;2023-03-29T00:03:30;15.23;;;7.82;;
52838;SDS011;39219;53.678;9.856;2023-03-29T00:05:58;17.38;;;8.05;;
52838;SDS011;39219;53.678;9.856;2023-03-29T00:08:28;15.32;;;7.40;;
52838;SDS011;39219;53.678;9.856;2023-03-29T00:10:55;14.95;;;7.03;;
52838;SDS011;39219;53.678;9.856;2023-03-29T00:13:23;16.27;;;7.47;;
52838;SDS011;39219;53.678;9.856;2023-03-29T00:15:49;17.20;;;7.55;;
52838;SDS011;39219;53.678;9.856;2023-03-29T00:18:15;16.40;;;7.85;;
52838;SDS011;39219;53.678;9.856;2023-03-29T00:20:41;16.45;;;7.97;;
52838;SDS011;39219;53.678;9.856;2023-03-29T00:23:08;14.80;;;7.40;;
52838;SDS011;39219;53.678;9.856;2023-03-29T00:25:36;14.90;;;6.97;;
52838;SDS011;39219;53.678;9.856;2023-03-29T00:28:02;15.60;;;7.07;;
52838;SDS011;39219;53.678;9.856;2023-03-29T00:30:28;14.23;;;7.07;;
52838;SDS011;39219;53.678;9.856;2023-03-29T00:32:55;16.90;;;6.63;;
52838;SDS011;39219;53.678;9.856;2023-03-29T00:35:21;14.25;;;6.38;;
52838;SDS011;39219;53.678;9.856;2023-03-29T00:37:47;13.80;;;6.40;;
52838;SDS011;39219;53.678;9.856;2023-03-29T00:40:17;14.43;;;6.22;;
52838;SDS011;39219;53.678;9.856;2023-03-29T00:42:45;11.82;;;6.40;;
52838;SDS011;39219;53.678;9.856;2023-03-29T00:45:15;12.20;;;6.55;;
52838;SDS011;39219;53.678;9.856;2023-03-29T00:47:43;13.20;;;5.72;;
52838;SDS011;39219;53.678;9.856;2023-03-29T00:50:12;12.77;;;5.50;;
52838;SDS011;39219;53.678;9.856;2023-03-29T00:52:39;10.43;;;5.15;;
52838;SDS011;39219;53.678;9.856;2023-03-29T00:55:08;11.13;;;5.20;;
52838;SDS011;39219;53.678;9.856;2023-03-29T00:57:36;11.32;;;5.35;;
52838;SDS011;39219;53.678;9.856;2023-03-29T01:00:05;13.15;;;5.57;;
52838;SDS011;39219;53.678;9.856;2023-03-29T01:02:34;10.30;;;5.38;;
52838;SDS011;39219;53.678;9.856;2023-03-29T01:05:04;10.20;;;5.10;;
52838;SDS011;39219;53.678;9.856;2023-03-29T01:07:33;10.13;;;5.60;;
52838;SDS011;39219;53.678;9.856;2023-03-29T01:10:03;10.68;;;5.28;;
52838;SDS011;39219;53.678;9.856;2023-03-29T01:12:31;9.80;;;5.30;;
52838;SDS011;39219;53.678;9.856;2023-03-29T01:15:01;10.15;;;4.85;;
52838;SDS011;39219;53.678;9.856;2023-03-29T01:17:29;9.38;;;4.97;;
52838;SDS011;39219;53.678;9.856;2023-03-29T01:19:57;10.52;;;4.95;;
52838;SDS011;39219;53.678;9.856;2023-03-29T01:22:33;8.85;;;4.80;;
52838;SDS011;39219;53.678;9.856;2023-03-29T01:25:05;13.02;;;5.18;;
52838;SDS011;39219;53.678;9.856;2023-03-29T01:27:40;12.23;;;5.22;;
52838;SDS011;39219;53.678;9.856;2023-03-29T01:30:10;12.73;;;5.15;;
52838;SDS011;39219;53.678;9.856;2023-03-29T01:32:38;12.10;;;5.45;;
52838;SDS011;39219;53.678;9.856;2023-03-29T01:35:08;12.68;;;4.72;;
52838;SDS011;39219;53.678;9.856;2023-03-29T01:37:38;10.18;;;4.95;;
52838;SDS011;39219;53.678;9.856;2023-03-29T01:40:06;11.77;;;4.88;;
52838;SDS011;39219;53.678;9.856;2023-03-29T01:42:35;9.85;;;4.70;;
52838;SDS011;39219;53.678;9.856;2023-03-29T01:45:07;11.77;;;4.97;;
52838;SDS011;39219;53.678;9.856;2023-03-29T01:47:38;9.90;;;4.70;;
52838;SDS011;39219;53.678;9.856;2023-03-29T01:50:08;11.88;;;4.88;;
52838;SDS011;39219;53.678;9.856;2023-03-29T01:52:38;10.20;;;4.43;;
52838;SDS011;39219;53.678;9.856;2023-03-29T01:55:07;10.45;;;4.50;;
52838;SDS011;39219;53.678;9.856;2023-03-29T01:57:35;11.10;;;4.93;;
52838;SDS011;39219;53.678;9.856;2023-03-29T02:00:03;10.10;;;4.90;;
52838;SDS011;39219;53.678;9.856;2023-03-29T02:02:35;12.13;;;4.90;;
52838;SDS011;39219;53.678;9.856;2023-03-29T02:05:03;10.70;;;4.82;;
52838;SDS011;39219;53.678;9.856;2023-03-29T02:07:33;11.35;;;4.50;;
52838;SDS011;39219;53.678;9.856;2023-03-29T02:10:02;8.77;;;4.45;;
52838;SDS011;39219;53.678;9.856;2023-03-29T02:12:29;8.88;;;4.40;;
52838;SDS011;39219;53.678;9.856;2023-03-29T02:14:56;10.98;;;4.53;;
52838;SDS011;39219;53.678;9.856;2023-03-29T02:17:23;11.07;;;4.95;;
52838;SDS011;39219;53.678;9.856;2023-03-29T02:19:52;9.50;;;4.50;;
52838;SDS011;39219;53.678;9.856;2023-03-29T02:22:21;10.32;;;4.82;;
52838;SDS011;39219;53.678;9.856;2023-03-29T02:24:48;11.95;;;4.60;;
52838;SDS011;39219;53.678;9.856;2023-03-29T02:27:15;10.10;;;4.70;;
52838;SDS011;39219;53.678;9.856;2023-03-29T02:29:42;12.82;;;4.47;;
52838;SDS011;39219;53.678;9.856;2023-03-29T02:32:11;8.90;;;4.50;;
52838;SDS011;39219;53.678;9.856;2023-03-29T02:34:40;10.40;;;4.45;;
52838;SDS011;39219;53.678;9.856;2023-03-29T02:37:13;8.18;;;4.30;;
52838;SDS011;39219;53.678;9.856;2023-03-29T02:39:42;12.18;;;4.68;;
52838;SDS011;39219;53.678;9.856;2023-03-29T02:42:08;9.27;;;4.80;;
52838;SDS011;39219;53.678;9.856;2023-03-29T02:44:36;9.65;;;4.60;;
52838;SDS011;39219;53.678;9.856;2023-03-29T02:47:05;10.20;;;4.70;;
52838;SDS011;39219;53.678;9.856;2023-03-29T02:49:32;10.50;;;4.55;;
52838;SDS011;39219;53.678;9.856;2023-03-29T02:52:00;11.38;;;5.35;;
52838;SDS011;39219;53.678;9.856;2023-03-29T02:54:31;15.52;;;5.47;;
52838;SDS011;39219;53.678;9.856;2023-03-29T02:57:02;11.70;;;4.68;;
52838;SDS011;39219;53.678;9.856;2023-03-29T02:59:30;11.73;;;4.85;;
52838;SDS011;39219;53.678;9.856;2023-03-29T03:01:57;10.65;;;4.88;;
52838;SDS011;39219;53.678;9.856;2023-03-29T03:04:23;10.90;;;5.22;;
52838;SDS011;39219;53.678;9.856;2023-03-29T03:06:50;8.98;;;4.90;;
52838;SDS011;39219;53.678;9.856;2023-03-29T03:09:17;11.80;;;5.10;;
52838;SDS011;39219;53.678;9.856;2023-03-29T03:11:45;11.52;;;4.90;;
52838;SDS011;39219;53.678;9.856;2023-03-29T03:14:11;9.95;;;4.95;;
52838;SDS011;39219;53.678;9.856;2023-03-29T03:16:37;11.38;;;5.10;;
52838;SDS011;39219;53.678;9.856;2023-03-29T03:19:03;11.05;;;4.95;;
52838;SDS011;39219;53.678;9.856;2023-03-29T03:21:30;10.70;;;4.57;;
52838;SDS011;39219;53.678;9.856;2023-03-29T03:23:56;12.43;;;5.15;;
52838;SDS011;39219;53.678;9.856;2023-03-29T03:26:22;9.45;;;4.35;;
52838;SDS011;39219;53.678;9.856;2023-03-29T03:28:55;10.68;;;4.40;;
52838;SDS011;39219;53.678;9.856;2023-03-29T03:31:21;12.18;;;4.72;;
52838;SDS011;39219;53.678;9.856;2023-03-29T03:33:47;11.40;;;4.40;;
52838;SDS011;39219;53.678;9.856;2023-03-29T03:36:14;8.75;;;4.38;;
52838;SDS011;39219;53.678;9.856;2023-03-29T03:38:40;10.13;;;4.28;;
52838;SDS011;39219;53.678;9.856;2023-03-29T03:41:07;12.50;;;4.53;;
52838;SDS011;39219;53.678;9.856;2023-03-29T03:43:34;10.57;;;4.65;;
52838;SDS011;39219;53.678;9.856;2023-03-29T03:46:02;12.98;;;4.75;;
52838;SDS011;39219;53.678;9.856;2023-03-29T03:48:28;8.38;;;4.22;;
52838;SDS011;39219;53.678;9.856;2023-03-29T03:50:56;12.48;;;4.20;;
52838;SDS011;39219;53.678;9.856;2023-03-29T03:53:23;11.43;;;4.28;;
52838;SDS011;39219;53.678;9.856;2023-03-29T03:55:50;11.50;;;4.50;;
52838;SDS011;39219;53.678;9.856;2023-03-29T03:58:17;7.63;;;3.95;;
52838;SDS011;39219;53.678;9.856;2023-03-29T04:00:46;9.93;;;3.80;;
52838;SDS011;39219;53.678;9.856;2023-03-29T04:03:14;8.05;;;4.10;;
52838;SDS011;39219;53.678;9.856;2023-03-29T04:05:41;9.57;;;4.05;;
52838;SDS011;39219;53.678;9.856;2023-03-29T04:08:08;10.20;;;4.43;;
52838;SDS011;39219;53.678;9.856;2023-03-29T04:10:35;7.65;;;3.88;;
52838;SDS011;39219;53.678;9.856;2023-03-29T04:13:02;11.48;;;4.10;;
52838;SDS011;39219;53.678;9.856;2023-03-29T04:15:29;9.80;;;4.43;;
52838;SDS011;39219;53.678;9.856;2023-03-29T04:17:55;10.38;;;4.30;;
52838;SDS011;39219;53.678;9.856;2023-03-29T04:20:23;9.63;;;4.25;;
52838;SDS011;39219;53.678;9.856;2023-03-29T04:22:49;12.52;;;4.90;;
52838;SDS011;39219;53.678;9.856;2023-03-29T04:25:16;10.95;;;5.13;;
52838;SDS011;39219;53.678;9.856;2023-03-29T04:27:42;11.85;;;4.47;;
52838;SDS011;39219;53.678;9.856;2023-03-29T04:30:09;11.13;;;4.90;;
52838;SDS011;39219;53.678;9.856;2023-03-29T04:32:36;11.82;;;5.05;;
52838;SDS011;39219;53.678;9.856;2023-03-29T04:35:02;10.40;;;4.68;;
52838;SDS011;39219;53.678;9.856;2023-03-29T04:37:30;12.05;;;4.97;;
52838;SDS011;39219;53.678;9.856;2023-03-29T04:39:57;13.60;;;5.05;;
52838;SDS011;39219;53.678;9.856;2023-03-29T04:42:24;10.90;;;5.05;;
52838;SDS011;39219;53.678;9.856;2023-03-29T04:44:50;13.05;;;5.40;;
52838;SDS011;39219;53.678;9.856;2023-03-29T04:47:17;10.60;;;5.40;;
52838;SDS011;39219;53.678;9.856;2023-03-29T04:49:43;13.57;;;5.70;;
52838;SDS011;39219;53.678;9.856;2023-03-29T04:52:10;11.80;;;5.38;;
52838;SDS011;39219;53.678;9.856;2023-03-29T04:54:38;12.55;;;5.60;;
52838;SDS011;39219;53.678;9.856;2023-03-29T04:57:04;13.88;;;5.70;;
52838;SDS011;39219;53.678;9.856;2023-03-29T04:59:31;11.48;;;5.40;;
52838;SDS011;39219;53.678;9.856;2023-03-29T05:01:57;12.68;;;6.22;;
52838;SDS011;39219;53.678;9.856;2023-03-29T05:04:24;11.52;;;6.18;;
52838;SDS011;39219;53.678;9.856;2023-03-29T05:06:52;15.48;;;6.95;;
52838;SDS011;39219;53.678;9.856;2023-03-29T05:09:19;14.38;;;6.57;;
52838;SDS011;39219;53.678;9.856;2023-03-29T05:11:47;14.40;;;6.68;;
52838;SDS011;39219;53.678;9.856;2023-03-29T05:14:13;15.02;;;7.20;;
52838;SDS011;39219;53.678;9.856;2023-03-29T05:16:40;19.52;;;7.32;;
52838;SDS011;39219;53.678;9.856;2023-03-29T05:19:08;15.88;;;7.05;;
52838;SDS011;39219;53.678;9.856;2023-03-29T05:21:35;14.38;;;7.45;;
52838;SDS011;39219;53.678;9.856;2023-03-29T05:24:01;18.20;;;8.57;;
52838;SDS011;39219;53.678;9.856;2023-03-29T05:26:28;16.75;;;7.75;;
52838;SDS011;39219;53.678;9.856;2023-03-29T05:28:56;18.40;;;7.63;;
52838;SDS011;39219;53.678;9.856;2023-03-29T05:31:22;16.17;;;7.78;;
52838;SDS011;39219;53.678;9.856;2023-03-29T05:33:48;18.92;;;8.57;;
52838;SDS011;39219;53.678;9.856;2023-03-29T05:36:15;16.05;;;8.07;;
52838;SDS011;39219;53.678;9.856;2023-03-29T05:38:42;18.63;;;8.63;;
52838;SDS011;39219;53.678;9.856;2023-03-29T05:41:10;17.67;;;8.77;;
52838;SDS011;39219;53.678;9.856;2023-03-29T05:43:37;21.25;;;8.50;;
52838;SDS011;39219;53.678;9.856;2023-03-29T05:46:05;18.40;;;8.77;;
52838;SDS011;39219;53.678;9.856;2023-03-29T05:48:31;17.02;;;8.77;;
52838;SDS011;39219;53.678;9.856;2023-03-29T05:50:57;17.67;;;9.27;;
52838;SDS011;39219;53.678;9.856;2023-03-29T05:53:24;19.60;;;8.70;;
52838;SDS011;39219;53.678;9.856;2023-03-29T05:55:51;17.95;;;9.05;;
52838;SDS011;39219;53.678;9.856;2023-03-29T05:58:17;16.88;;;8.95;;
52838;SDS011;39219;53.678;9.856;2023-03-29T06:00:44;17.35;;;8.70;;
52838;SDS011;39219;53.678;9.856;2023-03-29T06:03:13;21.85;;;9.65;;
52838;SDS011;39219;53.678;9.856;2023-03-29T06:05:42;19.80;;;9.63;;
52838;SDS011;39219;53.678;9.856;2023-03-29T06:08:09;17.90;;;9.07;;
52838;SDS011;39219;53.678;9.856;2023-03-29T06:10:35;17.98;;;9.48;;
52838;SDS011;39219;53.678;9.856;2023-03-29T06:13:02;19.27;;;9.60;;
52838;SDS011;39219;53.678;9.856;2023-03-29T06:15:30;18.15;;;9.82;;
52838;SDS011;39219;53.678;9.856;2023-03-29T06:17:57;20.30;;;9.98;;
52838;SDS011;39219;53.678;9.856;2023-03-29T06:20:24;19.80;;;9.40;;
52838;SDS011;39219;53.678;9.856;2023-03-29T06:22:51;18.63;;;9.98;;
52838;SDS011;39219;53.678;9.856;2023-03-29T06:25:17;18.67;;;9.75;;
52838;SDS011;39219;53.678;9.856;2023-03-29T06:27:43;17.88;;;9.27;;
52838;SDS011;39219;53.678;9.856;2023-03-29T06:30:12;20.52;;;9.98;;
52838;SDS011;39219;53.678;9.856;2023-03-29T06:32:39;19.85;;;9.75;;
52838;SDS011;39219;53.678;9.856;2023-03-29T06:35:06;17.92;;;9.30;;
52838;SDS011;39219;53.678;9.856;2023-03-29T06:37:34;19.63;;;9.60;;
52838;SDS011;39219;53.678;9.856;2023-03-29T06:40:00;19.30;;;9.10;;
52838;SDS011;39219;53.678;9.856;2023-03-29T06:42:31;18.38;;;9.75;;
52838;SDS011;39219;53.678;9.856;2023-03-29T06:44:59;18.77;;;9.20;;
52838;SDS011;39219;53.678;9.856;2023-03-29T06:47:25;16.73;;;9.10;;
52838;SDS011;39219;53.678;9.856;2023-03-29T06:49:54;20.00;;;9.05;;
52838;SDS011;39219;53.678;9.856;2023-03-29T06:52:21;17.35;;;8.68;;
52838;SDS011;39219;53.678;9.856;2023-03-29T06:54:48;21.42;;;9.43;;
52838;SDS011;39219;53.678;9.856;2023-03-29T06:57:15;17.65;;;8.57;;
52838;SDS011;39219;53.678;9.856;2023-03-29T06:59:41;18.48;;;8.48;;
52838;SDS011;39219;53.678;9.856;2023-03-29T07:02:08;17.25;;;9.00;;
52838;SDS011;39219;53.678;9.856;2023-03-29T07:04:36;15.48;;;8.30;;
52838;SDS011;39219;53.678;9.856;2023-03-29T07:07:02;15.98;;;8.40;;
52838;SDS011;39219;53.678;9.856;2023-03-29T07:09:31;19.02;;;9.38;;
52838;SDS011;39219;53.678;9.856;2023-03-29T07:12:01;16.58;;;8.13;;
52838;SDS011;39219;53.678;9.856;2023-03-29T07:14:27;15.07;;;8.38;;
52838;SDS011;39219;53.678;9.856;2023-03-29T07:16:54;15.38;;;8.63;;
52838;SDS011;39219;53.678;9.856;2023-03-29T07:19:22;17.20;;;8.95;;
52838;SDS011;39219;53.678;9.856;2023-03-29T07:21:51;15.93;;;8.18;;
52838;SDS011;39219;53.678;9.856;2023-03-29T07:24:18;14.88;;;8.10;;
52838;SDS011;39219;53.678;9.856;2023-03-29T07:26:45;14.93;;;8.05;;
52838;SDS011;39219;53.678;9.856;2023-03-29T07:29:14;14.07;;;7.72;;
52838;SDS011;39219;53.678;9.856;2023-03-29T07:31:40;17.65;;;8.60;;
52838;SDS011;39219;53.678;9.856;2023-03-29T07:34:07;14.27;;;8.07;;
52838;SDS011;39219;53.678;9.856;2023-03-29T07:36:35;14.18;;;7.93;;
52838;SDS011;39219;53.678;9.856;2023-03-29T07:39:02;15.85;;;8.45;;
52838;SDS011;39219;53.678;9.856;2023-03-29T07:41:29;15.30;;;7.38;;
52838;SDS011;39219;53.678;9.856;2023-03-29T07:43:55;15.77;;;8.07;;
52838;SDS011;39219;53.678;9.856;2023-03-29T07:46:23;15.25;;;7.82;;
52838;SDS011;39219;53.678;9.856;2023-03-29T07:48:49;15.48;;;7.63;;
52838;SDS011;39219;53.678;9.856;2023-03-29T07:51:16;13.55;;;7.55;;
52838;SDS011;39219;53.678;9.856;2023-03-29T07:53:42;14.20;;;7.50;;
52838;SDS011;39219;53.678;9.856;2023-03-29T07:56:08;16.33;;;8.00;;
52838;SDS011;39219;53.678;9.856;2023-03-29T07:58:35;14.60;;;7.32;;
52838;SDS011;39219;53.678;9.856;2023-03-29T08:01:01;13.07;;;7.05;;
52838;SDS011;39219;53.678;9.856;2023-03-29T08:03:29;13.48;;;6.82;;
52838;SDS011;39219;53.678;9.856;2023-03-29T08:05:55;13.73;;;6.88;;
52838;SDS011;39219;53.678;9.856;2023-03-29T08:08:21;12.32;;;7.32;;
52838;SDS011;39219;53.678;9.856;2023-03-29T08:10:48;11.88;;;6.85;;
52838;SDS011;39219;53.678;9.856;2023-03-29T08:13:14;13.35;;;7.03;;
52838;SDS011;39219;53.678;9.856;2023-03-29T08:15:40;13.35;;;6.82;;
52838;SDS011;39219;53.678;9.856;2023-03-29T08:18:10;12.98;;;6.97;;
52838;SDS011;39219;53.678;9.856;2023-03-29T08:20:37;14.45;;;7.22;;
52838;SDS011;39219;53.678;9.856;2023-03-29T08:23:04;12.30;;;6.90;;
52838;SDS011;39219;53.678;9.856;2023-03-29T08:25:30;13.00;;;6.90;;
52838;SDS011;39219;53.678;9.856;2023-03-29T08:27:56;11.18;;;6.20;;
52838;SDS011;39219;53.678;9.856;2023-03-29T08:30:22;12.00;;;6.30;;
52838;SDS011;39219;53.678;9.856;2023-03-29T08:32:49;14.00;;;6.63;;
52838;SDS011;39219;53.678;9.856;2023-03-29T08:35:17;11.10;;;6.40;;
52838;SDS011;39219;53.678;9.856;2023-03-29T08:37:45;12.63;;;6.65;;
52838;SDS011;39219;53.678;9.856;2023-03-29T08:40:12;12.88;;;6.47;;
52838;SDS011;39219;53.678;9.856;2023-03-29T08:42:47;14.57;;;6.50;;
52838;SDS011;39219;53.678;9.856;2023-03-29T08:45:18;10.05;;;5.82;;
52838;SDS011;39219;53.678;9.856;2023-03-29T08:47:50;13.02;;;6.63;;
52838;SDS011;39219;53.678;9.856;2023-03-29T08:50:19;16.20;;;6.45;;
52838;SDS011;39219;53.678;9.856;2023-03-29T08:52:49;11.90;;;6.55;;
52838;SDS011;39219;53.678;9.856;2023-03-29T08:55:17;10.63;;;6.25;;
52838;SDS011;39219;53.678;9.856;2023-03-29T08:57:46;11.00;;;5.43;;
52838;SDS011;39219;53.678;9.856;2023-03-29T09:00:16;10.70;;;6.10;;
52838;SDS011;39219;53.678;9.856;2023-03-29T09:02:44;12.38;;;6.47;;
52838;SDS011;39219;53.678;9.856;2023-03-29T09:05:17;11.40;;;5.68;;
52838;SDS011;39219;53.678;9.856;2023-03-29T09:07:45;11.60;;;5.88;;
52838;SDS011;39219;53.678;9.856;2023-03-29T09:10:14;13.27;;;5.95;;
52838;SDS011;39219;53.678;9.856;2023-03-29T09:12:43;10.50;;;5.82;;
52838;SDS011;39219;53.678;9.856;2023-03-29T09:15:16;11.70;;;6.03;;
52838;SDS011;39219;53.678;9.856;2023-03-29T09:17:47;11.65;;;6.30;;
52838;SDS011;39219;53.678;9.856;2023-03-29T09:20:25;12.02;;;6.28;;
52838;SDS011;39219;53.678;9.856;2023-03-29T09:22:54;11.68;;;5.88;;
52838;SDS011;39219;53.678;9.856;2023-03-29T09:25:27;11.98;;;5.90;;
52838;SDS011;39219;53.678;9.856;2023-03-29T09:27:57;11.50;;;5.90;;
52838;SDS011;39219;53.678;9.856;2023-03-29T09:30:27;12.10;;;5.88;;
52838;SDS011;39219;53.678;9.856;2023-03-29T09:32:55;13.23;;;6.18;;
52838;SDS011;39219;53.678;9.856;2023-03-29T09:35:23;11.15;;;5.60;;
52838;SDS011;39219;53.678;9.856;2023-03-29T09:37:53;10.63;;;6.00;;
52838;SDS011;39219;53.678;9.856;2023-03-29T09:40:20;13.38;;;6.10;;
52838;SDS011;39219;53.678;9.856;2023-03-29T09:42:49;10.27;;;6.15;;
52838;SDS011;39219;53.678;9.856;2023-03-29T09:45:17;11.15;;;6.07;;
52838;SDS011;39219;53.678;9.856;2023-03-29T09:47:44;12.00;;;5.80;;
52838;SDS011;39219;53.678;9.856;2023-03-29T09:50:14;12.52;;;6.32;;
52838;SDS011;39219;53.678;9.856;2023-03-29T09:52:41;14.35;;;5.88;;
52838;SDS011;39219;53.678;9.856;2023-03-29T09:55:11;13.25;;;6.43;;
52838;SDS011;39219;53.678;9.856;2023-03-29T09:57:37;12.10;;;6.30;;
52838;SDS011;39219;53.678;9.856;2023-03-29T10:00:06;10.57;;;5.40;;
52838;SDS011;39219;53.678;9.856;2023-03-29T10:02:34;11.82;;;5.65;;
52838;SDS011;39219;53.678;9.856;2023-03-29T10:05:02;10.60;;;5.82;;
52838;SDS011;39219;53.678;9.856;2023-03-29T10:07:32;10.30;;;5.85;;
52838;SDS011;39219;53.678;9.856;2023-03-29T10:09:59;12.18;;;6.07;;
52838;SDS011;39219;53.678;9.856;2023-03-29T10:12:26;11.15;;;6.20;;
52838;SDS011;39219;53.678;9.856;2023-03-29T10:14:52;13.93;;;6.80;;
52838;SDS011;39219;53.678;9.856;2023-03-29T10:17:21;12.43;;;6.55;;
52838;SDS011;39219;53.678;9.856;2023-03-29T10:19:49;11.77;;;6.30;;
52838;SDS011;39219;53.678;9.856;2023-03-29T10:22:16;12.48;;;6.50;;
52838;SDS011;39219;53.678;9.856;2023-03-29T10:24:46;14.73;;;6.80;;
52838;SDS011;39219;53.678;9.856;2023-03-29T10:27:12;13.00;;;6.72;;
52838;SDS011;39219;53.678;9.856;2023-03-29T10:29:39;11.88;;;6.15;;
52838;SDS011;39219;53.678;9.856;2023-03-29T10:32:16;13.88;;;6.53;;
52838;SDS011;39219;53.678;9.856;2023-03-29T10:34:45;12.13;;;6.63;;
52838;SDS011;39219;53.678;9.856;2023-03-29T10:37:12;13.45;;;6.75;;
52838;SDS011;39219;53.678;9.856;2023-03-29T10:39:40;13.68;;;6.85;;
52838;SDS011;39219;53.678;9.856;2023-03-29T10:42:06;12.60;;;6.82;;
52838;SDS011;39219;53.678;9.856;2023-03-29T10:44:38;13.43;;;6.45;;
52838;SDS011;39219;53.678;9.856;2023-03-29T10:47:08;12.63;;;6.53;;
52838;SDS011;39219;53.678;9.856;2023-03-29T10:49:38;12.93;;;7.15;;
52838;SDS011;39219;53.678;9.856;2023-03-29T10:52:06;15.07;;;6.50;;
52838;SDS011;39219;53.678;9.856;2023-03-29T10:54:33;13.15;;;6.68;;
52838;SDS011;39219;53.678;9.856;2023-03-29T10:57:00;12.20;;;6.25;;
52838;SDS011;39219;53.678;9.856;2023-03-29T10:59:29;14.50;;;7.38;;
52838;SDS011;39219;53.678;9.856;2023-03-29T11:02:03;14.05;;;6.85;;
52838;SDS011;39219;53.678;9.856;2023-03-29T11:04:32;12.68;;;7.35;;
52838;SDS011;39219;53.678;9.856;2023-03-29T11:07:12;14.95;;;7.63;;
52838;SDS011;39219;53.678;9.856;2023-03-29T11:09:43;12.95;;;6.95;;
52838;SDS011;39219;53.678;9.856;2023-03-29T11:12:13;15.27;;;7.25;;
52838;SDS011;39219;53.678;9.856;2023-03-29T11:14:46;14.13;;;6.97;;
52838;SDS011;39219;53.678;9.856;2023-03-29T11:17:19;14.55;;;7.95;;
52838;SDS011;39219;53.678;9.856;2023-03-29T11:20:00;17.98;;;7.65;;
52838;SDS011;39219;53.678;9.856;2023-03-29T11:22:33;15.00;;;7.20;;
52838;SDS011;39219;53.678;9.856;2023-03-29T11:25:05;17.25;;;7.60;;
52838;SDS011;39219;53.678;9.856;2023-03-29T11:27:37;14.57;;;7.35;;
52838;SDS011;39219;53.678;9.856;2023-03-29T11:30:07;16.08;;;7.82;;
52838;SDS011;39219;53.678;9.856;2023-03-29T11:32:39;14.35;;;7.20;;
52838;SDS011;39219;53.678;9.856;2023-03-29T11:35:10;15.80;;;8.30;;
52838;SDS011;39219;53.678;9.856;2023-03-29T11:37:44;17.20;;;8.45;;
52838;SDS011;39219;53.678;9.856;2023-03-29T11:40:17;15.80;;;8.65;;
52838;SDS011;39219;53.678;9.856;2023-03-29T11:42:47;20.10;;;9.27;;
52838;SDS011;39219;53.678;9.856;2023-03-29T11:45:17;16.92;;;8.57;;
52838;SDS011;39219;53.678;9.856;2023-03-29T11:47:44;13.98;;;8.27;;
52838;SDS011;39219;53.678;9.856;2023-03-29T11:50:13;16.55;;;8.35;;
52838;SDS011;39219;53.678;9.856;2023-03-29T11:52:42;15.07;;;8.38;;
52838;SDS011;39219;53.678;9.856;2023-03-29T11:55:12;19.58;;;10.30;;
52838;SDS011;39219;53.678;9.856;2023-03-29T11:57:41;17.60;;;8.85;;
52838;SDS011;39219;53.678;9.856;2023-03-29T12:00:11;15.65;;;8.95;;
52838;SDS011;39219;53.678;9.856;2023-03-29T12:02:39;17.70;;;9.65;;
52838;SDS011;39219;53.678;9.856;2023-03-29T12:05:08;18.15;;;9.13;;
52838;SDS011;39219;53.678;9.856;2023-03-29T12:07:38;15.40;;;9.00;;
52838;SDS011;39219;53.678;9.856;2023-03-29T12:10:07;16.02;;;8.60;;
52838;SDS011;39219;53.678;9.856;2023-03-29T12:12:42;21.25;;;9.63;;
52838;SDS011;39219;53.678;9.856;2023-03-29T12:15:12;19.38;;;10.35;;
52838;SDS011;39219;53.678;9.856;2023-03-29T12:17:42;18.17;;;10.23;;
52838;SDS011;39219;53.678;9.856;2023-03-29T12:20:12;17.85;;;10.07;;
52838;SDS011;39219;53.678;9.856;2023-03-29T12:22:40;15.45;;;9.10;;
52838;SDS011;39219;53.678;9.856;2023-03-29T12:25:07;18.70;;;10.00;;
52838;SDS011;39219;53.678;9.856;2023-03-29T12:27:38;16.63;;;9.95;;
52838;SDS011;39219;53.678;9.856;2023-03-29T12:30:33;16.02;;;9.60;;
52838;SDS011;39219;53.678;9.856;2023-03-29T12:33:17;16.38;;;9.98;;
52838;SDS011;39219;53.678;9.856;2023-03-29T12:35:48;17.50;;;10.45;;
52838;SDS011;39219;53.678;9.856;2023-03-29T12:38:18;18.10;;;10.02;;
52838;SDS011;39219;53.678;9.856;2023-03-29T12:40:46;18.20;;;10.23;;
52838;SDS011;39219;53.678;9.856;2023-03-29T12:43:14;17.83;;;10.05;;
52838;SDS011;39219;53.678;9.856;2023-03-29T12:45:45;17.00;;;10.38;;
52838;SDS011;39219;53.678;9.856;2023-03-29T12:48:13;16.38;;;9.60;;
52838;SDS011;39219;53.678;9.856;2023-03-29T12:50:42;17.85;;;9.57;;
52838;SDS011;39219;53.678;9.856;2023-03-29T12:53:13;18.52;;;10.60;;
52838;SDS011;39219;53.678;9.856;2023-03-29T12:55:47;17.05;;;10.05;;
52838;SDS011;39219;53.678;9.856;2023-03-29T12:58:27;17.27;;;9.88;;
52838;SDS011;39219;53.678;9.856;2023-03-29T13:01:06;14.75;;;9.18;;
52838;SDS011;39219;53.678;9.856;2023-03-29T13:03:39;16.23;;;9.73;;
52838;SDS011;39219;53.678;9.856;2023-03-29T13:06:07;15.88;;;9.32;;
52838;SDS011;39219;53.678;9.856;2023-03-29T13:08:35;17.55;;;9.65;;
52838;SDS011;39219;53.678;9.856;2023-03-29T13:11:02;15.85;;;9.52;;
52838;SDS011;39219;53.678;9.856;2023-03-29T13:13:29;16.27;;;9.38;;
52838;SDS011;39219;53.678;9.856;2023-03-29T13:16:08;18.10;;;10.27;;
52838;SDS011;39219;53.678;9.856;2023-03-29T13:18:38;16.48;;;9.65;;
52838;SDS011;39219;53.678;9.856;2023-03-29T13:21:10;15.90;;;10.23;;
52838;SDS011;39219;53.678;9.856;2023-03-29T13:23:40;18.25;;;10.07;;
52838;SDS011;39219;53.678;9.856;2023-03-29T13:28:54;16.30;;;9.48;;
52838;SDS011;39219;53.678;9.856;2023-03-29T13:31:28;18.17;;;9.55;;
52838;SDS011;39219;53.678;9.856;2023-03-29T13:33:57;19.90;;;10.07;;
52838;SDS011;39219;53.678;9.856;2023-03-29T13:36:32;17.08;;;9.88;;
52838;SDS011;39219;53.678;9.856;2023-03-29T13:39:03;17.05;;;9.43;;
52838;SDS011;39219;53.678;9.856;2023-03-29T13:41:31;14.35;;;9.18;;
52838;SDS011;39219;53.678;9.856;2023-03-29T13:43:58;15.77;;;9.38;;
52838;SDS011;39219;53.678;9.856;2023-03-29T13:46:35;16.70;;;9.05;;
52838;SDS011;39219;53.678;9.856;2023-03-29T13:49:10;15.85;;;9.75;;
52838;SDS011;39219;53.678;9.856;2023-03-29T13:51:38;14.95;;;9.13;;
52838;SDS011;39219;53.678;9.856;2023-03-29T13:54:09;16.23;;;10.02;;
52838;SDS011;39219;53.678;9.856;2023-03-29T13:56:41;15.07;;;9.95;;
52838;SDS011;39219;53.678;9.856;2023-03-29T13:59:16;15.00;;;9.63;;
52838;SDS011;39219;53.678;9.856;2023-03-29T14:01:45;16.20;;;10.13;;
52838;SDS011;39219;53.678;9.856;2023-03-29T14:04:15;16.50;;;9.68;;
52838;SDS011;39219;53.678;9.856;2023-03-29T14:06:44;16.67;;;9.65;;
52838;SDS011;39219;53.678;9.856;2023-03-29T14:09:14;17.77;;;9.27;;
52838;SDS011;39219;53.678;9.856;2023-03-29T14:11:42;15.80;;;8.82;;
52838;SDS011;39219;53.678;9.856;2023-03-29T14:14:09;14.10;;;9.52;;
52838;SDS011;39219;53.678;9.856;2023-03-29T14:16:36;16.92;;;9.93;;
52838;SDS011;39219;53.678;9.856;2023-03-29T14:19:05;15.25;;;9.70;;
52838;SDS011;39219;53.678;9.856;2023-03-29T14:21:36;15.57;;;9.93;;
52838;SDS011;39219;53.678;9.856;2023-03-29T14:24:02;14.18;;;9.50;;
52838;SDS011;39219;53.678;9.856;2023-03-29T14:26:29;16.27;;;10.27;;
52838;SDS011;39219;53.678;9.856;2023-03-29T14:28:56;17.42;;;9.90;;
52838;SDS011;39219;53.678;9.856;2023-03-29T14:31:25;17.10;;;10.38;;
52838;SDS011;39219;53.678;9.856;2023-03-29T14:33:55;15.48;;;9.65;;
52838;SDS011;39219;53.678;9.856;2023-03-29T14:36:23;16.70;;;9.80;;
52838;SDS011;39219;53.678;9.856;2023-03-29T14:38:51;16.85;;;10.25;;
52838;SDS011;39219;53.678;9.856;2023-03-29T14:41:18;16.80;;;10.65;;
52838;SDS011;39219;53.678;9.856;2023-03-29T14:43:44;16.33;;;10.30;;